sensor_id;sensor_type;location;lat;lon;timestamp;P1;durP1;ratioP1;P2;durP2;ratioP2
20535;SDS011;10426;49.420;8.390;2022-11-12T00:01:20;27.23;;;10.17;;
20535;SDS011;10426;49.420;8.390;2022-11-12T00:03:48;39.55;;;11.02;;
20535;SDS011;10426;49.420;8.390;2022-11-12T00:06:16;18.23;;;10.68;;
20535;SDS011;10426;49.420;8.390;2022-11-12T00:08:43;31.77;;;11.73;;
20535;SDS011;10426;49.420;8.390;2022-11-12T00:11:09;45.15;;;12.05;;
20535;SDS011;10426;49.420;8.390;2022-11-12T00:13:36;24.10;;;10.27;;
20535;SDS011;10426;49.420;8.390;2022-11-12T00:16:04;37.53;;;10.80;;
20535;SDS011;10426;49.420;8.390;2022-11-12T00:18:31;16.15;;;9.88;;
20535;SDS011;10426;49.420;8.390;2022-11-12T00:20:59;35.85;;;11.00;;
20535;SDS011;10426;49.420;8.390;2022-11-12T00:23:26;52.65;;;11.70;;
20535;SDS011;10426;49.420;8.390;2022-11-12T00:25:59;16.13;;;10.95;;
20535;SDS011;10426;49.420;8.390;2022-11-12T00:28:25;22.13;;;10.55;;
20535;SDS011;10426;49.420;8.390;2022-11-12T00:30:52;26.90;;;10.60;;
20535;SDS011;10426;49.420;8.390;2022-11-12T00:33:19;74.35;;;11.30;;
20535;SDS011;10426;49.420;8.390;2022-11-12T00:35:46;25.02;;;10.80;;
20535;SDS011;10426;49.420;8.390;2022-11-12T00:38:14;23.30;;;10.73;;
20535;SDS011;10426;49.420;8.390;2022-11-12T00:40:41;17.35;;;10.63;;
20535;SDS011;10426;49.420;8.390;2022-11-12T00:43:08;22.40;;;10.57;;
20535;SDS011;10426;49.420;8.390;2022-11-12T00:45:34;21.95;;;10.00;;
20535;SDS011;10426;49.420;8.390;2022-11-12T00:48:01;52.92;;;10.88;;
20535;SDS011;10426;49.420;8.390;2022-11-12T00:50:28;56.17;;;10.82;;
20535;SDS011;10426;49.420;8.390;2022-11-12T00:52:54;75.80;;;12.98;;
20535;SDS011;10426;49.420;8.390;2022-11-12T00:55:22;83.18;;;12.35;;
20535;SDS011;10426;49.420;8.390;2022-11-12T00:57:49;34.47;;;11.05;;
20535;SDS011;10426;49.420;8.390;2022-11-12T01:00:16;61.03;;;12.02;;
20535;SDS011;10426;49.420;8.390;2022-11-12T01:02:43;57.97;;;14.10;;
20535;SDS011;10426;49.420;8.390;2022-11-12T01:05:10;34.72;;;13.05;;
20535;SDS011;10426;49.420;8.390;2022-11-12T01:07:36;27.48;;;12.07;;
20535;SDS011;10426;49.420;8.390;2022-11-12T01:10:03;28.45;;;12.27;;
20535;SDS011;10426;49.420;8.390;2022-11-12T01:12:31;44.92;;;11.73;;
20535;SDS011;10426;49.420;8.390;2022-11-12T01:14:58;30.40;;;11.60;;
20535;SDS011;10426;49.420;8.390;2022-11-12T01:17:25;46.28;;;13.32;;
20535;SDS011;10426;49.420;8.390;2022-11-12T01:19:52;48.20;;;12.88;;
20535;SDS011;10426;49.420;8.390;2022-11-12T01:22:19;38.23;;;12.20;;
20535;SDS011;10426;49.420;8.390;2022-11-12T01:24:46;28.05;;;13.20;;
20535;SDS011;10426;49.420;8.390;2022-11-12T01:27:12;22.27;;;11.68;;
20535;SDS011;10426;49.420;8.390;2022-11-12T01:29:40;18.90;;;12.48;;
20535;SDS011;10426;49.420;8.390;2022-11-12T01:32:07;27.10;;;12.98;;
20535;SDS011;10426;49.420;8.390;2022-11-12T01:34:34;61.90;;;14.60;;
20535;SDS011;10426;49.420;8.390;2022-11-12T01:37:00;95.60;;;17.35;;
20535;SDS011;10426;49.420;8.390;2022-11-12T01:39:27;37.35;;;14.45;;
20535;SDS011;10426;49.420;8.390;2022-11-12T01:41:54;40.30;;;13.97;;
20535;SDS011;10426;49.420;8.390;2022-11-12T01:44:22;101.72;;;19.17;;
20535;SDS011;10426;49.420;8.390;2022-11-12T01:46:53;95.70;;;21.48;;
20535;SDS011;10426;49.420;8.390;2022-11-12T01:49:22;55.40;;;18.75;;
20535;SDS011;10426;49.420;8.390;2022-11-12T01:51:50;68.28;;;19.05;;
20535;SDS011;10426;49.420;8.390;2022-11-12T01:54:18;56.03;;;16.45;;
20535;SDS011;10426;49.420;8.390;2022-11-12T01:56:45;39.28;;;14.18;;
20535;SDS011;10426;49.420;8.390;2022-11-12T01:59:15;73.47;;;15.73;;
20535;SDS011;10426;49.420;8.390;2022-11-12T02:01:42;50.83;;;14.97;;
20535;SDS011;10426;49.420;8.390;2022-11-12T02:04:10;63.72;;;15.75;;
20535;SDS011;10426;49.420;8.390;2022-11-12T02:06:37;53.42;;;14.43;;
20535;SDS011;10426;49.420;8.390;2022-11-12T02:09:04;115.47;;;16.83;;
20535;SDS011;10426;49.420;8.390;2022-11-12T02:11:31;131.50;;;19.15;;
20535;SDS011;10426;49.420;8.390;2022-11-12T02:13:58;44.10;;;14.55;;
20535;SDS011;10426;49.420;8.390;2022-11-12T02:16:25;96.32;;;16.67;;
20535;SDS011;10426;49.420;8.390;2022-11-12T02:18:53;89.15;;;16.40;;
20535;SDS011;10426;49.420;8.390;2022-11-12T02:21:22;71.80;;;15.50;;
20535;SDS011;10426;49.420;8.390;2022-11-12T02:23:56;93.88;;;16.77;;
20535;SDS011;10426;49.420;8.390;2022-11-12T02:26:22;65.25;;;14.40;;
20535;SDS011;10426;49.420;8.390;2022-11-12T02:28:49;51.88;;;14.75;;
20535;SDS011;10426;49.420;8.390;2022-11-12T02:31:16;53.47;;;14.40;;
20535;SDS011;10426;49.420;8.390;2022-11-12T02:33:43;62.33;;;14.82;;
20535;SDS011;10426;49.420;8.390;2022-11-12T02:36:09;72.60;;;15.73;;
20535;SDS011;10426;49.420;8.390;2022-11-12T02:38:37;42.35;;;14.20;;
20535;SDS011;10426;49.420;8.390;2022-11-12T02:41:04;45.35;;;14.40;;
20535;SDS011;10426;49.420;8.390;2022-11-12T02:43:31;44.33;;;14.90;;
20535;SDS011;10426;49.420;8.390;2022-11-12T02:45:57;46.42;;;14.50;;
20535;SDS011;10426;49.420;8.390;2022-11-12T02:48:24;57.63;;;15.25;;
20535;SDS011;10426;49.420;8.390;2022-11-12T02:50:51;43.25;;;15.48;;
20535;SDS011;10426;49.420;8.390;2022-11-12T02:53:17;49.55;;;15.68;;
20535;SDS011;10426;49.420;8.390;2022-11-12T02:55:45;47.20;;;16.05;;
20535;SDS011;10426;49.420;8.390;2022-11-12T02:58:13;56.03;;;15.70;;
20535;SDS011;10426;49.420;8.390;2022-11-12T03:00:40;48.13;;;16.73;;
20535;SDS011;10426;49.420;8.390;2022-11-12T03:03:06;37.80;;;15.25;;
20535;SDS011;10426;49.420;8.390;2022-11-12T03:05:33;57.10;;;17.23;;
20535;SDS011;10426;49.420;8.390;2022-11-12T03:08:01;30.92;;;14.48;;
20535;SDS011;10426;49.420;8.390;2022-11-12T03:10:28;48.20;;;16.42;;
20535;SDS011;10426;49.420;8.390;2022-11-12T03:12:58;53.38;;;16.58;;
20535;SDS011;10426;49.420;8.390;2022-11-12T03:15:25;33.55;;;16.33;;
20535;SDS011;10426;49.420;8.390;2022-11-12T03:17:52;50.42;;;16.38;;
20535;SDS011;10426;49.420;8.390;2022-11-12T03:20:19;73.47;;;18.35;;
20535;SDS011;10426;49.420;8.390;2022-11-12T03:22:53;30.02;;;14.68;;
20535;SDS011;10426;49.420;8.390;2022-11-12T03:25:21;68.88;;;17.40;;
20535;SDS011;10426;49.420;8.390;2022-11-12T03:27:47;32.92;;;16.10;;
20535;SDS011;10426;49.420;8.390;2022-11-12T03:30:16;41.03;;;15.48;;
20535;SDS011;10426;49.420;8.390;2022-11-12T03:32:43;53.38;;;15.65;;
20535;SDS011;10426;49.420;8.390;2022-11-12T03:35:10;77.28;;;19.20;;
20535;SDS011;10426;49.420;8.390;2022-11-12T03:37:38;93.70;;;19.83;;
20535;SDS011;10426;49.420;8.390;2022-11-12T03:40:05;38.90;;;18.45;;
20535;SDS011;10426;49.420;8.390;2022-11-12T03:42:32;76.18;;;19.40;;
20535;SDS011;10426;49.420;8.390;2022-11-12T03:44:58;54.60;;;16.38;;
20535;SDS011;10426;49.420;8.390;2022-11-12T03:47:26;54.47;;;17.83;;
20535;SDS011;10426;49.420;8.390;2022-11-12T03:49:53;41.90;;;16.13;;
20535;SDS011;10426;49.420;8.390;2022-11-12T03:52:20;60.63;;;17.00;;
20535;SDS011;10426;49.420;8.390;2022-11-12T03:54:46;40.53;;;16.30;;
20535;SDS011;10426;49.420;8.390;2022-11-12T03:57:13;33.95;;;16.30;;
20535;SDS011;10426;49.420;8.390;2022-11-12T03:59:40;33.20;;;15.52;;
20535;SDS011;10426;49.420;8.390;2022-11-12T04:02:06;44.72;;;17.00;;
20535;SDS011;10426;49.420;8.390;2022-11-12T04:04:40;46.97;;;17.85;;
20535;SDS011;10426;49.420;8.390;2022-11-12T04:07:24;70.57;;;19.33;;
20535;SDS011;10426;49.420;8.390;2022-11-12T04:10:04;60.38;;;18.08;;
20535;SDS011;10426;49.420;8.390;2022-11-12T04:12:31;34.00;;;16.67;;
20535;SDS011;10426;49.420;8.390;2022-11-12T04:15:15;28.35;;;16.67;;
20535;SDS011;10426;49.420;8.390;2022-11-12T04:17:42;31.33;;;16.65;;
20535;SDS011;10426;49.420;8.390;2022-11-12T04:20:27;37.60;;;17.05;;
20535;SDS011;10426;49.420;8.390;2022-11-12T04:23:11;34.25;;;16.90;;
20535;SDS011;10426;49.420;8.390;2022-11-12T04:25:38;42.50;;;18.40;;
20535;SDS011;10426;49.420;8.390;2022-11-12T04:28:22;44.83;;;17.85;;
20535;SDS011;10426;49.420;8.390;2022-11-12T04:30:48;78.45;;;20.25;;
20535;SDS011;10426;49.420;8.390;2022-11-12T04:33:14;55.60;;;19.35;;
20535;SDS011;10426;49.420;8.390;2022-11-12T04:35:42;49.90;;;18.55;;
20535;SDS011;10426;49.420;8.390;2022-11-12T04:38:09;68.35;;;18.42;;
20535;SDS011;10426;49.420;8.390;2022-11-12T04:40:36;52.35;;;17.30;;
20535;SDS011;10426;49.420;8.390;2022-11-12T04:43:20;39.78;;;17.60;;
20535;SDS011;10426;49.420;8.390;2022-11-12T04:46:04;45.22;;;16.27;;
20535;SDS011;10426;49.420;8.390;2022-11-12T04:48:31;23.48;;;14.85;;
20535;SDS011;10426;49.420;8.390;2022-11-12T04:51:00;29.38;;;15.63;;
20535;SDS011;10426;49.420;8.390;2022-11-12T04:53:27;30.10;;;16.02;;
20535;SDS011;10426;49.420;8.390;2022-11-12T04:55:55;26.30;;;16.23;;
20535;SDS011;10426;49.420;8.390;2022-11-12T04:58:22;27.13;;;14.95;;
20535;SDS011;10426;49.420;8.390;2022-11-12T05:00:49;23.50;;;14.77;;
20535;SDS011;10426;49.420;8.390;2022-11-12T05:03:16;30.15;;;15.70;;
20535;SDS011;10426;49.420;8.390;2022-11-12T05:05:43;21.00;;;14.55;;
20535;SDS011;10426;49.420;8.390;2022-11-12T05:08:10;25.67;;;15.13;;
20535;SDS011;10426;49.420;8.390;2022-11-12T05:10:37;27.23;;;14.02;;
20535;SDS011;10426;49.420;8.390;2022-11-12T05:13:04;28.95;;;15.05;;
20535;SDS011;10426;49.420;8.390;2022-11-12T05:15:32;43.30;;;15.13;;
20535;SDS011;10426;49.420;8.390;2022-11-12T05:17:58;36.75;;;16.25;;
20535;SDS011;10426;49.420;8.390;2022-11-12T05:20:25;46.40;;;16.10;;
20535;SDS011;10426;49.420;8.390;2022-11-12T05:22:51;32.05;;;14.85;;
20535;SDS011;10426;49.420;8.390;2022-11-12T05:25:18;23.95;;;13.98;;
20535;SDS011;10426;49.420;8.390;2022-11-12T05:27:45;23.92;;;14.57;;
20535;SDS011;10426;49.420;8.390;2022-11-12T05:30:12;23.00;;;13.95;;
20535;SDS011;10426;49.420;8.390;2022-11-12T05:32:39;21.05;;;13.00;;
20535;SDS011;10426;49.420;8.390;2022-11-12T05:35:06;31.02;;;13.80;;
20535;SDS011;10426;49.420;8.390;2022-11-12T05:37:34;37.72;;;13.98;;
20535;SDS011;10426;49.420;8.390;2022-11-12T05:40:00;16.67;;;12.38;;
20535;SDS011;10426;49.420;8.390;2022-11-12T05:42:28;22.38;;;13.75;;
20535;SDS011;10426;49.420;8.390;2022-11-12T05:44:55;26.27;;;13.23;;
20535;SDS011;10426;49.420;8.390;2022-11-12T05:47:23;19.63;;;11.85;;
20535;SDS011;10426;49.420;8.390;2022-11-12T05:49:49;18.30;;;12.30;;
20535;SDS011;10426;49.420;8.390;2022-11-12T05:52:16;15.23;;;11.27;;
20535;SDS011;10426;49.420;8.390;2022-11-12T05:54:43;20.67;;;12.03;;
20535;SDS011;10426;49.420;8.390;2022-11-12T05:57:10;20.40;;;12.80;;
20535;SDS011;10426;49.420;8.390;2022-11-12T05:59:38;15.68;;;11.65;;
20535;SDS011;10426;49.420;8.390;2022-11-12T06:02:04;16.63;;;11.27;;
20535;SDS011;10426;49.420;8.390;2022-11-12T06:04:31;21.20;;;12.35;;
20535;SDS011;10426;49.420;8.390;2022-11-12T06:06:58;16.45;;;11.68;;
20535;SDS011;10426;49.420;8.390;2022-11-12T06:09:27;15.25;;;11.35;;
20535;SDS011;10426;49.420;8.390;2022-11-12T06:11:54;26.90;;;12.20;;
20535;SDS011;10426;49.420;8.390;2022-11-12T06:14:20;25.52;;;13.38;;
20535;SDS011;10426;49.420;8.390;2022-11-12T06:16:49;16.50;;;12.20;;
20535;SDS011;10426;49.420;8.390;2022-11-12T06:19:15;18.70;;;12.80;;
20535;SDS011;10426;49.420;8.390;2022-11-12T06:21:42;23.95;;;12.55;;
20535;SDS011;10426;49.420;8.390;2022-11-12T06:24:09;28.08;;;13.32;;
20535;SDS011;10426;49.420;8.390;2022-11-12T06:26:35;17.98;;;13.05;;
20535;SDS011;10426;49.420;8.390;2022-11-12T06:29:02;25.70;;;14.55;;
20535;SDS011;10426;49.420;8.390;2022-11-12T06:31:29;22.80;;;14.52;;
20535;SDS011;10426;49.420;8.390;2022-11-12T06:33:57;18.00;;;13.48;;
20535;SDS011;10426;49.420;8.390;2022-11-12T06:36:24;20.00;;;13.40;;
20535;SDS011;10426;49.420;8.390;2022-11-12T06:38:50;19.88;;;13.52;;
20535;SDS011;10426;49.420;8.390;2022-11-12T06:41:17;21.33;;;14.38;;
20535;SDS011;10426;49.420;8.390;2022-11-12T06:43:44;23.98;;;14.50;;
20535;SDS011;10426;49.420;8.390;2022-11-12T06:46:11;19.95;;;14.02;;
20535;SDS011;10426;49.420;8.390;2022-11-12T06:48:38;20.73;;;13.57;;
20535;SDS011;10426;49.420;8.390;2022-11-12T06:51:08;21.33;;;14.03;;
20535;SDS011;10426;49.420;8.390;2022-11-12T06:53:35;25.70;;;15.40;;
20535;SDS011;10426;49.420;8.390;2022-11-12T06:56:02;24.25;;;14.55;;
20535;SDS011;10426;49.420;8.390;2022-11-12T06:58:29;28.88;;;16.98;;
20535;SDS011;10426;49.420;8.390;2022-11-12T07:00:56;22.63;;;16.05;;
20535;SDS011;10426;49.420;8.390;2022-11-12T07:03:22;19.58;;;15.25;;
20535;SDS011;10426;49.420;8.390;2022-11-12T07:05:49;19.40;;;14.90;;
20535;SDS011;10426;49.420;8.390;2022-11-12T07:08:17;19.52;;;14.02;;
20535;SDS011;10426;49.420;8.390;2022-11-12T07:10:44;16.23;;;13.10;;
20535;SDS011;10426;49.420;8.390;2022-11-12T07:13:10;18.87;;;14.00;;
20535;SDS011;10426;49.420;8.390;2022-11-12T07:15:37;17.97;;;14.90;;
20535;SDS011;10426;49.420;8.390;2022-11-12T07:18:04;16.60;;;13.60;;
20535;SDS011;10426;49.420;8.390;2022-11-12T07:20:31;19.42;;;14.57;;
20535;SDS011;10426;49.420;8.390;2022-11-12T07:22:58;17.80;;;13.70;;
20535;SDS011;10426;49.420;8.390;2022-11-12T07:25:26;19.83;;;14.45;;
20535;SDS011;10426;49.420;8.390;2022-11-12T07:27:53;18.63;;;14.13;;
20535;SDS011;10426;49.420;8.390;2022-11-12T07:30:20;15.68;;;12.98;;
20535;SDS011;10426;49.420;8.390;2022-11-12T07:32:47;14.27;;;12.32;;
20535;SDS011;10426;49.420;8.390;2022-11-12T07:35:13;14.98;;;12.77;;
20535;SDS011;10426;49.420;8.390;2022-11-12T07:37:40;16.63;;;13.02;;
20535;SDS011;10426;49.420;8.390;2022-11-12T07:40:07;18.02;;;13.70;;
20535;SDS011;10426;49.420;8.390;2022-11-12T07:42:35;16.88;;;13.95;;
20535;SDS011;10426;49.420;8.390;2022-11-12T07:45:02;19.13;;;14.02;;
20535;SDS011;10426;49.420;8.390;2022-11-12T07:47:29;17.92;;;13.50;;
20535;SDS011;10426;49.420;8.390;2022-11-12T07:49:56;15.85;;;13.35;;
20535;SDS011;10426;49.420;8.390;2022-11-12T07:52:22;16.02;;;14.30;;
20535;SDS011;10426;49.420;8.390;2022-11-12T07:54:49;15.35;;;13.73;;
20535;SDS011;10426;49.420;8.390;2022-11-12T07:57:16;16.70;;;14.27;;
20535;SDS011;10426;49.420;8.390;2022-11-12T07:59:44;18.08;;;14.60;;
20535;SDS011;10426;49.420;8.390;2022-11-12T08:02:10;16.92;;;15.13;;
20535;SDS011;10426;49.420;8.390;2022-11-12T08:04:37;16.27;;;14.57;;
20535;SDS011;10426;49.420;8.390;2022-11-12T08:07:04;16.60;;;14.80;;
20535;SDS011;10426;49.420;8.390;2022-11-12T08:09:30;18.38;;;15.18;;
20535;SDS011;10426;49.420;8.390;2022-11-12T08:11:57;19.42;;;15.43;;
20535;SDS011;10426;49.420;8.390;2022-11-12T08:14:24;18.95;;;16.17;;
20535;SDS011;10426;49.420;8.390;2022-11-12T08:16:52;18.67;;;16.48;;
20535;SDS011;10426;49.420;8.390;2022-11-12T08:19:19;21.00;;;16.33;;
20535;SDS011;10426;49.420;8.390;2022-11-12T08:21:45;22.38;;;16.70;;
20535;SDS011;10426;49.420;8.390;2022-11-12T08:24:12;22.55;;;17.33;;
20535;SDS011;10426;49.420;8.390;2022-11-12T08:26:38;23.45;;;17.63;;
20535;SDS011;10426;49.420;8.390;2022-11-12T08:29:05;25.52;;;18.17;;
20535;SDS011;10426;49.420;8.390;2022-11-12T08:31:32;32.15;;;19.00;;
20535;SDS011;10426;49.420;8.390;2022-11-12T08:34:00;27.75;;;19.02;;
20535;SDS011;10426;49.420;8.390;2022-11-12T08:36:36;24.77;;;19.80;;
20535;SDS011;10426;49.420;8.390;2022-11-12T08:39:03;25.73;;;21.63;;
20535;SDS011;10426;49.420;8.390;2022-11-12T08:41:30;23.87;;;19.87;;
20535;SDS011;10426;49.420;8.390;2022-11-12T08:43:57;26.55;;;21.98;;
20535;SDS011;10426;49.420;8.390;2022-11-12T08:46:24;32.70;;;29.00;;
20535;SDS011;10426;49.420;8.390;2022-11-12T08:48:51;26.60;;;22.52;;
20535;SDS011;10426;49.420;8.390;2022-11-12T08:51:20;25.90;;;21.00;;
20535;SDS011;10426;49.420;8.390;2022-11-12T08:53:47;22.52;;;19.48;;
20535;SDS011;10426;49.420;8.390;2022-11-12T08:56:13;25.52;;;20.83;;
20535;SDS011;10426;49.420;8.390;2022-11-12T08:58:40;27.63;;;22.52;;
20535;SDS011;10426;49.420;8.390;2022-11-12T09:01:07;43.03;;;33.35;;
20535;SDS011;10426;49.420;8.390;2022-11-12T09:03:34;148.82;;;115.65;;
20535;SDS011;10426;49.420;8.390;2022-11-12T09:06:02;53.17;;;34.40;;
20535;SDS011;10426;49.420;8.390;2022-11-12T09:08:31;74.40;;;53.58;;
20535;SDS011;10426;49.420;8.390;2022-11-12T09:10:58;50.33;;;36.45;;
20535;SDS011;10426;49.420;8.390;2022-11-12T09:13:24;58.15;;;42.67;;
20535;SDS011;10426;49.420;8.390;2022-11-12T09:15:51;47.10;;;28.73;;
20535;SDS011;10426;49.420;8.390;2022-11-12T09:18:18;42.17;;;27.42;;
20535;SDS011;10426;49.420;8.390;2022-11-12T09:20:44;50.35;;;30.80;;
20535;SDS011;10426;49.420;8.390;2022-11-12T09:23:12;46.67;;;28.40;;
20535;SDS011;10426;49.420;8.390;2022-11-12T09:25:41;47.00;;;28.95;;
20535;SDS011;10426;49.420;8.390;2022-11-12T09:28:09;42.83;;;29.47;;
20535;SDS011;10426;49.420;8.390;2022-11-12T09:30:36;79.10;;;25.45;;
20535;SDS011;10426;49.420;8.390;2022-11-12T09:33:03;44.75;;;25.17;;
20535;SDS011;10426;49.420;8.390;2022-11-12T09:35:29;53.55;;;24.98;;
20535;SDS011;10426;49.420;8.390;2022-11-12T09:37:56;48.70;;;23.70;;
20535;SDS011;10426;49.420;8.390;2022-11-12T09:40:26;54.08;;;24.23;;
20535;SDS011;10426;49.420;8.390;2022-11-12T09:42:58;46.75;;;24.40;;
20535;SDS011;10426;49.420;8.390;2022-11-12T09:45:26;47.63;;;25.67;;
20535;SDS011;10426;49.420;8.390;2022-11-12T09:47:56;57.37;;;27.37;;
20535;SDS011;10426;49.420;8.390;2022-11-12T09:50:25;53.40;;;28.13;;
20535;SDS011;10426;49.420;8.390;2022-11-12T09:52:54;47.90;;;27.38;;
20535;SDS011;10426;49.420;8.390;2022-11-12T09:55:27;54.67;;;29.35;;
20535;SDS011;10426;49.420;8.390;2022-11-12T09:57:56;62.65;;;29.48;;
20535;SDS011;10426;49.420;8.390;2022-11-12T10:00:24;50.00;;;29.13;;
20535;SDS011;10426;49.420;8.390;2022-11-12T10:02:51;41.10;;;22.38;;
20535;SDS011;10426;49.420;8.390;2022-11-12T10:05:22;43.85;;;18.83;;
20535;SDS011;10426;49.420;8.390;2022-11-12T10:08:01;34.63;;;16.80;;
20535;SDS011;10426;49.420;8.390;2022-11-12T10:10:32;38.17;;;16.40;;
20535;SDS011;10426;49.420;8.390;2022-11-12T10:13:04;34.90;;;18.70;;
20535;SDS011;10426;49.420;8.390;2022-11-12T10:15:48;40.70;;;20.48;;
20535;SDS011;10426;49.420;8.390;2022-11-12T10:18:40;33.33;;;20.60;;
20535;SDS011;10426;49.420;8.390;2022-11-12T10:21:12;26.25;;;18.90;;
20535;SDS011;10426;49.420;8.390;2022-11-12T10:23:41;27.05;;;19.10;;
20535;SDS011;10426;49.420;8.390;2022-11-12T10:26:09;37.55;;;21.13;;
20535;SDS011;10426;49.420;8.390;2022-11-12T10:28:38;40.53;;;20.60;;
20535;SDS011;10426;49.420;8.390;2022-11-12T10:31:09;40.40;;;23.30;;
20535;SDS011;10426;49.420;8.390;2022-11-12T10:33:36;47.60;;;24.13;;
20535;SDS011;10426;49.420;8.390;2022-11-12T10:36:11;43.43;;;26.27;;
20535;SDS011;10426;49.420;8.390;2022-11-12T10:38:40;39.70;;;25.30;;
20535;SDS011;10426;49.420;8.390;2022-11-12T10:41:17;41.20;;;26.27;;
20535;SDS011;10426;49.420;8.390;2022-11-12T10:43:51;39.20;;;25.37;;
20535;SDS011;10426;49.420;8.390;2022-11-12T10:46:20;37.23;;;24.37;;
20535;SDS011;10426;49.420;8.390;2022-11-12T10:48:52;32.47;;;22.10;;
20535;SDS011;10426;49.420;8.390;2022-11-12T10:51:22;28.80;;;19.40;;
20535;SDS011;10426;49.420;8.390;2022-11-12T10:53:51;28.53;;;19.67;;
20535;SDS011;10426;49.420;8.390;2022-11-12T10:56:22;29.40;;;20.60;;
20535;SDS011;10426;49.420;8.390;2022-11-12T10:59:04;25.98;;;19.55;;
20535;SDS011;10426;49.420;8.390;2022-11-12T11:01:35;24.90;;;19.17;;
20535;SDS011;10426;49.420;8.390;2022-11-12T11:04:02;23.65;;;18.08;;
20535;SDS011;10426;49.420;8.390;2022-11-12T11:06:29;27.10;;;19.33;;
20535;SDS011;10426;49.420;8.390;2022-11-12T11:09:07;29.30;;;19.25;;
20535;SDS011;10426;49.420;8.390;2022-11-12T11:11:34;26.53;;;19.70;;
20535;SDS011;10426;49.420;8.390;2022-11-12T11:14:10;25.50;;;19.08;;
20535;SDS011;10426;49.420;8.390;2022-11-12T11:16:49;27.45;;;20.30;;
20535;SDS011;10426;49.420;8.390;2022-11-12T11:19:16;27.63;;;21.17;;
20535;SDS011;10426;49.420;8.390;2022-11-12T11:21:54;31.10;;;21.67;;
20535;SDS011;10426;49.420;8.390;2022-11-12T11:24:26;25.30;;;20.60;;
20535;SDS011;10426;49.420;8.390;2022-11-12T11:26:57;29.13;;;21.95;;
20535;SDS011;10426;49.420;8.390;2022-11-12T11:29:34;27.38;;;20.77;;
20535;SDS011;10426;49.420;8.390;2022-11-12T11:32:06;29.35;;;22.10;;
20535;SDS011;10426;49.420;8.390;2022-11-12T11:34:37;35.13;;;25.00;;
20535;SDS011;10426;49.420;8.390;2022-11-12T11:37:14;32.92;;;25.27;;
20535;SDS011;10426;49.420;8.390;2022-11-12T11:39:47;20.98;;;18.40;;
20535;SDS011;10426;49.420;8.390;2022-11-12T11:42:21;24.00;;;20.45;;
20535;SDS011;10426;49.420;8.390;2022-11-12T11:44:54;22.90;;;19.25;;
20535;SDS011;10426;49.420;8.390;2022-11-12T11:47:27;22.58;;;19.55;;
20535;SDS011;10426;49.420;8.390;2022-11-12T11:49:59;23.40;;;19.55;;
20535;SDS011;10426;49.420;8.390;2022-11-12T11:52:33;21.95;;;18.63;;
20535;SDS011;10426;49.420;8.390;2022-11-12T11:55:07;21.63;;;18.45;;
20535;SDS011;10426;49.420;8.390;2022-11-12T11:57:35;22.42;;;18.67;;
20535;SDS011;10426;49.420;8.390;2022-11-12T12:00:08;22.90;;;19.38;;
20535;SDS011;10426;49.420;8.390;2022-11-12T12:05:31;21.13;;;18.58;;
20535;SDS011;10426;49.420;8.390;2022-11-12T12:08:00;21.55;;;19.00;;
20535;SDS011;10426;49.420;8.390;2022-11-12T12:10:29;21.02;;;18.83;;
20535;SDS011;10426;49.420;8.390;2022-11-12T12:12:59;20.95;;;18.60;;
20535;SDS011;10426;49.420;8.390;2022-11-12T12:15:34;21.58;;;18.90;;
20535;SDS011;10426;49.420;8.390;2022-11-12T12:18:04;21.73;;;19.42;;
20535;SDS011;10426;49.420;8.390;2022-11-12T12:20:37;21.48;;;19.13;;
20535;SDS011;10426;49.420;8.390;2022-11-12T12:23:07;20.50;;;18.07;;
20535;SDS011;10426;49.420;8.390;2022-11-12T12:25:36;21.17;;;18.90;;
20535;SDS011;10426;49.420;8.390;2022-11-12T12:28:05;19.67;;;17.58;;
20535;SDS011;10426;49.420;8.390;2022-11-12T12:30:36;20.38;;;18.17;;
20535;SDS011;10426;49.420;8.390;2022-11-12T12:33:08;21.90;;;19.50;;
20535;SDS011;10426;49.420;8.390;2022-11-12T12:35:43;23.67;;;21.13;;
20535;SDS011;10426;49.420;8.390;2022-11-12T12:38:14;22.52;;;20.20;;
20535;SDS011;10426;49.420;8.390;2022-11-12T12:40:45;23.45;;;21.02;;
20535;SDS011;10426;49.420;8.390;2022-11-12T12:43:13;28.70;;;25.48;;
20535;SDS011;10426;49.420;8.390;2022-11-12T12:45:43;23.23;;;20.85;;
20535;SDS011;10426;49.420;8.390;2022-11-12T12:48:12;22.38;;;20.13;;
20535;SDS011;10426;49.420;8.390;2022-11-12T12:50:42;34.28;;;30.20;;
20535;SDS011;10426;49.420;8.390;2022-11-12T12:53:16;24.23;;;21.73;;
20535;SDS011;10426;49.420;8.390;2022-11-12T12:55:44;20.65;;;18.65;;
20535;SDS011;10426;49.420;8.390;2022-11-12T12:58:14;22.07;;;19.87;;
20535;SDS011;10426;49.420;8.390;2022-11-12T13:00:45;24.45;;;22.02;;
20535;SDS011;10426;49.420;8.390;2022-11-12T13:03:12;23.77;;;21.27;;
20535;SDS011;10426;49.420;8.390;2022-11-12T13:05:39;21.30;;;19.20;;
20535;SDS011;10426;49.420;8.390;2022-11-12T13:08:08;21.02;;;18.80;;
20535;SDS011;10426;49.420;8.390;2022-11-12T13:10:45;21.77;;;19.48;;
20535;SDS011;10426;49.420;8.390;2022-11-12T13:13:23;21.55;;;19.33;;
20535;SDS011;10426;49.420;8.390;2022-11-12T13:15:52;22.23;;;20.00;;
20535;SDS011;10426;49.420;8.390;2022-11-12T13:21:07;22.92;;;20.52;;
20535;SDS011;10426;49.420;8.390;2022-11-12T13:23:43;23.35;;;20.85;;
20535;SDS011;10426;49.420;8.390;2022-11-12T13:26:41;24.15;;;21.60;;
20535;SDS011;10426;49.420;8.390;2022-11-12T13:34:31;22.50;;;20.10;;
20535;SDS011;10426;49.420;8.390;2022-11-12T13:36:59;24.27;;;21.85;;
20535;SDS011;10426;49.420;8.390;2022-11-12T13:39:28;24.20;;;21.90;;
20535;SDS011;10426;49.420;8.390;2022-11-12T13:41:57;25.35;;;22.60;;
20535;SDS011;10426;49.420;8.390;2022-11-12T13:44:57;24.20;;;21.70;;
20535;SDS011;10426;49.420;8.390;2022-11-12T13:47:24;25.25;;;22.65;;
20535;SDS011;10426;49.420;8.390;2022-11-12T13:49:53;25.50;;;22.85;;
20535;SDS011;10426;49.420;8.390;2022-11-12T13:52:21;26.70;;;23.90;;
20535;SDS011;10426;49.420;8.390;2022-11-12T13:54:53;26.80;;;24.00;;
20535;SDS011;10426;49.420;8.390;2022-11-12T13:57:27;28.02;;;25.08;;
20535;SDS011;10426;49.420;8.390;2022-11-12T14:00:07;27.63;;;24.63;;
20535;SDS011;10426;49.420;8.390;2022-11-12T14:02:35;27.27;;;24.48;;
20535;SDS011;10426;49.420;8.390;2022-11-12T14:05:02;28.13;;;25.23;;
20535;SDS011;10426;49.420;8.390;2022-11-12T14:07:34;29.75;;;26.65;;
20535;SDS011;10426;49.420;8.390;2022-11-12T14:10:06;30.67;;;27.38;;
20535;SDS011;10426;49.420;8.390;2022-11-12T14:12:38;28.90;;;25.75;;
20535;SDS011;10426;49.420;8.390;2022-11-12T14:15:17;29.38;;;26.27;;
20535;SDS011;10426;49.420;8.390;2022-11-12T14:17:49;27.65;;;24.75;;
20535;SDS011;10426;49.420;8.390;2022-11-12T14:20:21;27.63;;;24.73;;
20535;SDS011;10426;49.420;8.390;2022-11-12T14:22:50;28.23;;;25.25;;
20535;SDS011;10426;49.420;8.390;2022-11-12T14:25:18;26.77;;;24.03;;
20535;SDS011;10426;49.420;8.390;2022-11-12T14:27:46;29.55;;;26.45;;
20535;SDS011;10426;49.420;8.390;2022-11-12T14:30:14;32.70;;;28.50;;
20535;SDS011;10426;49.420;8.390;2022-11-12T14:32:42;32.70;;;29.10;;
20535;SDS011;10426;49.420;8.390;2022-11-12T14:35:16;32.88;;;29.23;;
20535;SDS011;10426;49.420;8.390;2022-11-12T14:37:44;34.22;;;30.60;;
20535;SDS011;10426;49.420;8.390;2022-11-12T14:40:13;32.38;;;28.98;;
20535;SDS011;10426;49.420;8.390;2022-11-12T14:42:42;33.78;;;30.08;;